Time;durP1;ratioP1;P1;durP2;ratioP2;P2;SDS_P1;SDS_P2;PMS_P1;PMS_P2;Temp;Humidity;BMP_temperature;BMP_pressure;BME280_temperature;BME280_humidity;BME280_pressure;Samples;Min_cycle;Max_cycle;Signal;HPM_P1;HPM_P2
2021/10/18 00:02:20;;;;;;;15.37;13.27;;;;;;;12.84;75.05;102205.28;6124364;23;20161;-61
2021/10/18 00:04:46;;;;;;;18.37;14.70;;;;;;;12.66;74.67;102174.84;6124133;23;20154;-61
2021/10/18 00:07:11;;;;;;;17.30;14.30;;;;;;;12.89;74.87;102205.66;6124080;23;20160;-61
2021/10/18 00:09:37;;;;;;;17.47;13.00;;;;;;;12.94;74.44;102199.66;6123897;23;20154;-61
2021/10/18 00:12:03;;;;;;;17.27;14.37;;;;;;;12.88;74.71;102189.38;6123647;23;20155;-61
2021/10/18 00:14:29;;;;;;;16.30;14.47;;;;;;;12.76;74.26;102167.63;6124037;23;20182;-61
2021/10/18 00:16:55;;;;;;;18.97;13.53;;;;;;;12.99;74.62;102204.00;6124244;23;20151;-60
2021/10/18 00:19:21;;;;;;;18.53;13.37;;;;;;;12.64;75.17;102182.00;6124245;23;20154;-62
2021/10/18 00:21:46;;;;;;;18.73;14.43;;;;;;;12.73;75.65;102201.81;6124211;23;20178;-62
2021/10/18 00:24:12;;;;;;;20.03;13.43;;;;;;;12.74;75.52;102190.28;6124152;23;20234;-59
2021/10/18 00:26:37;;;;;;;19.87;15.07;;;;;;;12.83;74.93;102201.75;6122567;23;20669;-59
2021/10/18 00:29:03;;;;;;;19.17;13.10;;;;;;;12.81;75.20;102184.66;6124276;23;20229;-59
2021/10/18 00:31:28;;;;;;;19.33;14.10;;;;;;;12.93;75.06;102198.09;6123740;23;20660;-59
2021/10/18 00:33:54;;;;;;;16.60;12.83;;;;;;;12.97;74.87;102198.06;6123956;23;20256;-59
2021/10/18 00:36:20;;;;;;;14.40;12.57;;;;;;;12.96;74.89;102191.72;6123858;23;20155;-59
2021/10/18 00:38:46;;;;;;;17.83;12.77;;;;;;;13.00;74.82;102180.53;6123977;23;20606;-59
2021/10/18 00:41:12;;;;;;;19.73;14.47;;;;;;;12.80;75.32;102182.31;6123996;23;20150;-62
2021/10/18 00:43:43;;;;;;;21.00;15.00;;;;;;;12.88;75.42;102181.03;6122454;23;20163;-60
2021/10/18 00:46:08;;;;;;;17.90;14.70;;;;;;;12.66;75.27;102130.34;6124209;23;20153;-60
2021/10/18 00:48:34;;;;;;;18.07;14.10;;;;;;;12.97;75.37;102173.03;6124024;23;20150;-60
2021/10/18 00:51:00;;;;;;;20.10;14.63;;;;;;;12.99;75.03;102171.41;6123855;23;20158;-59
2021/10/18 00:53:27;;;;;;;19.23;14.57;;;;;;;13.03;74.81;102169.41;6123757;23;20531;-60
2021/10/18 00:55:55;;;;;;;15.33;13.53;;;;;;;13.06;74.88;102173.34;6123840;23;20155;-60
2021/10/18 00:58:22;;;;;;;22.70;14.77;;;;;;;13.02;74.71;102159.44;6123441;23;20158;-59
2021/10/18 01:00:48;;;;;;;23.00;14.97;;;;;;;12.88;75.08;102142.06;6123994;23;20165;-62
2021/10/18 01:03:15;;;;;;;20.57;15.20;;;;;;;13.06;75.28;102171.34;6123813;23;20553;-59
2021/10/18 01:05:41;;;;;;;19.07;14.70;;;;;;;12.78;75.53;102148.53;6124033;23;20158;-61
2021/10/18 01:08:10;;;;;;;21.20;15.80;;;;;;;12.59;75.48;102115.69;6123931;23;20151;-62
2021/10/18 01:10:36;;;;;;;18.20;15.07;;;;;;;12.95;75.89;102172.59;6123592;23;20605;-61
2021/10/18 01:13:04;;;;;;;20.50;15.13;;;;;;;12.85;75.87;102156.78;6124022;23;20654;-63
2021/10/18 01:15:29;;;;;;;23.97;16.53;;;;;;;12.73;75.76;102132.28;6123768;23;20154;-63
2021/10/18 01:17:55;;;;;;;19.67;15.60;;;;;;;13.03;75.99;102171.38;6123907;23;20151;-61
2021/10/18 01:20:47;;;;;;;19.47;14.93;;;;;;;13.06;75.54;102170.56;6123575;23;20182;-61
2021/10/18 01:23:12;;;;;;;18.77;15.60;;;;;;;12.99;75.94;102157.50;6144109;23;20564;-62
2021/10/18 01:25:39;;;;;;;24.27;15.73;;;;;;;12.99;76.01;102162.25;6123769;23;20174;-62
2021/10/18 01:28:05;;;;;;;21.67;15.17;;;;;;;13.09;75.85;102172.50;6123880;23;20174;-62
2021/10/18 01:30:31;;;;;;;22.80;15.27;;;;;;;13.12;75.50;102166.91;6123317;23;20261;-62
2021/10/18 01:32:57;;;;;;;20.27;14.77;;;;;;;13.11;75.31;102170.13;6124023;23;20158;-61
2021/10/18 01:35:23;;;;;;;23.97;16.47;;;;;;;12.89;75.70;102143.66;6123798;23;20153;-63
2021/10/18 01:37:51;;;;;;;22.07;16.13;;;;;;;12.75;75.73;102119.53;6123721;23;20594;-61
2021/10/18 01:40:20;;;;;;;19.97;16.77;;;;;;;13.06;75.74;102170.56;6123506;23;20157;-61
2021/10/18 01:42:46;;;;;;;20.60;14.23;;;;;;;13.08;75.44;102170.94;6124026;23;20178;-62
2021/10/18 01:45:13;;;;;;;17.27;14.10;;;;;;;13.08;75.07;102168.94;6123875;23;20209;-62
2021/10/18 01:47:39;;;;;;;17.90;15.10;;;;;;;12.89;74.82;102132.50;6122520;23;20249;-62
2021/10/18 01:50:09;;;;;;;18.27;14.03;;;;;;;13.08;74.83;102165.38;6123853;23;20186;-62
2021/10/18 01:52:35;;;;;;;19.70;14.33;;;;;;;12.92;74.39;102126.13;6123694;23;20158;-62
2021/10/18 01:55:00;;;;;;;17.30;14.00;;;;;;;12.81;74.68;102111.53;6123827;23;20189;-61
2021/10/18 01:57:26;;;;;;;15.87;13.13;;;;;;;13.16;74.64;102166.91;6122139;23;20161;-61
2021/10/18 01:59:51;;;;;;;15.47;13.50;;;;;;;13.17;74.51;102169.25;6123555;23;20247;-61
2021/10/18 02:02:17;;;;;;;17.13;13.07;;;;;;;13.19;74.73;102160.47;6122067;23;20494;-61
2021/10/18 02:04:42;;;;;;;17.10;13.37;;;;;;;12.95;74.61;102125.28;6123745;23;20154;-61
2021/10/18 02:07:08;;;;;;;15.27;12.37;;;;;;;13.20;74.55;102165.66;6123835;23;20154;-61
2021/10/18 02:09:33;;;;;;;15.70;12.27;;;;;;;13.20;74.45;102164.84;6123969;23;20648;-62
2021/10/18 02:11:59;;;;;;;16.07;12.63;;;;;;;13.16;74.60;102170.44;6124594;23;20151;-63
2021/10/18 02:14:24;;;;;;;15.87;12.40;;;;;;;13.11;74.89;102164.56;6125169;23;20180;-62
2021/10/18 02:16:50;;;;;;;16.20;12.00;;;;;;;13.11;74.83;102167.34;6125636;23;20159;-62
2021/10/18 02:19:15;;;;;;;15.00;11.63;;;;;;;13.09;75.10;102169.72;6125295;23;20152;-62
2021/10/18 02:21:41;;;;;;;16.90;12.80;;;;;;;13.07;75.20;102164.56;6125201;23;20155;-62
2021/10/18 02:24:06;;;;;;;15.87;12.53;;;;;;;12.97;75.26;102153.56;6125353;23;20517;-62
2021/10/18 02:26:32;;;;;;;14.03;12.50;;;;;;;13.06;75.18;102171.34;6125338;23;20205;-63
2021/10/18 02:28:57;;;;;;;13.70;12.20;;;;;;;13.04;75.49;102164.59;6125208;23;20162;-63
2021/10/18 02:31:23;;;;;;;14.87;12.13;;;;;;;13.08;75.23;102168.16;6124878;23;20217;-62
2021/10/18 02:33:48;;;;;;;16.83;12.80;;;;;;;12.91;74.96;102142.03;6123394;23;20217;-63
2021/10/18 02:36:14;;;;;;;17.17;12.60;;;;;;;13.11;75.09;102172.91;6125218;23;20157;-61
2021/10/18 02:38:40;;;;;;;16.80;12.77;;;;;;;12.97;75.11;102145.97;6123843;23;20173;-61
2021/10/18 02:41:07;;;;;;;14.97;11.63;;;;;;;12.98;75.34;102155.13;6125398;23;20214;-61
2021/10/18 02:43:32;;;;;;;18.27;12.40;;;;;;;13.08;75.71;102162.59;6125149;23;20595;-61
2021/10/18 02:45:58;;;;;;;16.50;13.67;;;;;;;13.11;75.20;102167.34;6125539;23;20262;-61
2021/10/18 02:48:23;;;;;;;16.60;12.67;;;;;;;13.12;75.29;102175.25;6125069;23;20151;-61
2021/10/18 02:50:50;;;;;;;16.93;12.60;;;;;;;13.15;75.02;102173.63;6125313;23;20183;-61
2021/10/18 02:53:16;;;;;;;16.30;12.77;;;;;;;12.95;74.95;102137.22;6125261;23;20258;-61
2021/10/18 02:55:42;;;;;;;19.53;13.37;;;;;;;13.19;74.93;102172.41;6125217;23;20178;-63
2021/10/18 02:58:07;;;;;;;15.43;13.40;;;;;;;13.21;75.01;102174.78;6125385;23;20153;-61
2021/10/18 03:00:33;;;;;;;17.63;12.43;;;;;;;12.62;74.77;102079.53;6124942;23;20151;-61
2021/10/18 03:02:59;;;;;;;15.87;12.37;;;;;;;13.18;75.21;102170.03;6123577;23;20630;-63
2021/10/18 03:05:24;;;;;;;18.87;13.30;;;;;;;12.86;74.80;102109.09;6124787;23;20152;-61
2021/10/18 03:07:53;;;;;;;15.47;11.77;;;;;;;13.32;74.74;102175.47;6125302;23;20197;-61
2021/10/18 03:10:19;;;;;;;15.40;12.90;;;;;;;13.29;74.22;102179.88;6124922;23;20158;-62
2021/10/18 03:12:45;;;;;;;15.00;13.00;;;;;;;13.06;74.29;102137.16;6125077;23;20214;-63
2021/10/18 03:15:10;;;;;;;13.87;11.87;;;;;;;13.31;74.34;102179.44;6125068;23;20191;-63
2021/10/18 03:17:36;;;;;;;14.27;12.07;;;;;;;13.03;75.00;102140.75;6124908;23;20199;-62
2021/10/18 03:20:02;;;;;;;17.63;13.13;;;;;;;13.26;75.03;102183.47;6124733;23;20608;-63
2021/10/18 03:22:28;;;;;;;18.70;12.77;;;;;;;13.18;75.16;102175.59;6124067;23;20177;-62
2021/10/18 03:24:53;;;;;;;15.83;12.63;;;;;;;13.09;74.97;102153.81;6124629;23;20182;-62
2021/10/18 03:27:21;;;;;;;15.40;12.40;;;;;;;13.32;74.71;102173.47;6124507;23;20154;-63
2021/10/18 03:29:47;;;;;;;14.37;12.67;;;;;;;13.31;74.81;102183.03;6124409;23;20158;-65
2021/10/18 03:32:13;;;;;;;14.90;13.03;;;;;;;13.31;74.86;102179.44;6124572;23;20503;-63
2021/10/18 03:34:38;;;;;;;14.87;12.47;;;;;;;13.31;74.75;102177.47;6124388;23;20182;-63
2021/10/18 03:37:04;;;;;;;17.37;12.43;;;;;;;13.37;74.62;102186.16;6123055;23;20165;-62
2021/10/18 03:39:30;;;;;;;18.83;13.27;;;;;;;13.25;74.58;102164.38;6122559;23;20178;-63
2021/10/18 03:41:56;;;;;;;15.27;12.57;;;;;;;13.37;74.30;102181.38;6124524;23;20155;-63
2021/10/18 03:44:21;;;;;;;15.80;13.00;;;;;;;13.27;74.38;102173.91;6124734;23;20150;-63
2021/10/18 03:46:47;;;;;;;19.37;13.93;;;;;;;13.19;74.69;102168.84;6124549;23;20159;-63
2021/10/18 03:49:13;;;;;;;17.73;13.63;;;;;;;13.36;74.44;102184.56;6124653;23;20555;-64
2021/10/18 03:51:39;;;;;;;14.77;12.93;;;;;;;13.24;74.65;102191.47;6124352;23;20225;-62
2021/10/18 03:54:05;;;;;;;17.23;13.50;;;;;;;13.10;74.60;102157.38;6124875;23;20270;-62
2021/10/18 03:56:31;;;;;;;17.83;13.80;;;;;;;13.38;74.39;102196.09;6124647;23;20503;-61
2021/10/18 03:58:56;;;;;;;21.50;13.73;;;;;;;13.27;74.31;102175.94;6124585;23;20249;-61
2021/10/18 04:01:22;;;;;;;18.27;14.10;;;;;;;13.42;74.63;102185.72;6124404;23;20476;-61
2021/10/18 04:03:47;;;;;;;22.10;14.30;;;;;;;13.43;74.47;102185.28;6124709;23;20161;-61
2021/10/18 04:06:13;;;;;;;17.00;13.87;;;;;;;13.24;74.49;102157.25;6124543;23;20151;-61
2021/10/18 04:08:39;;;;;;;22.90;16.03;;;;;;;13.21;74.39;102161.66;6124729;23;20159;-61
2021/10/18 04:11:05;;;;;;;20.43;15.70;;;;;;;13.45;74.07;102191.22;6122765;23;20161;-61
2021/10/18 04:13:31;;;;;;;21.23;14.70;;;;;;;13.46;74.26;102192.81;6124227;23;20182;-61
2021/10/18 04:15:56;;;;;;;22.43;14.60;;;;;;;13.16;74.49;102141.84;6124571;23;20600;-61
2021/10/18 04:18:22;;;;;;;19.73;14.50;;;;;;;13.47;73.91;102188.03;6124005;23;20183;-61
2021/10/18 04:20:48;;;;;;;16.33;10.90;;;;;;;13.46;74.07;102180.88;6124131;23;20232;-61
2021/10/18 04:23:32;;;;;;;17.90;13.93;;;;;;;13.49;74.64;102188.41;6124216;23;20150;-61
2021/10/18 04:25:58;;;;;;;18.73;15.50;;;;;;;13.10;74.69;102129.56;6124183;23;20160;-61
2021/10/18 04:28:24;;;;;;;21.93;15.73;;;;;;;13.10;74.15;102127.56;6124155;23;20155;-61
2021/10/18 04:30:50;;;;;;;21.13;14.60;;;;;;;13.45;74.39;102187.66;6123948;23;20205;-61
2021/10/18 04:33:16;;;;;;;22.27;14.23;;;;;;;13.16;74.66;102141.84;6123828;23;20204;-61
2021/10/18 04:35:41;;;;;;;21.50;13.87;;;;;;;13.40;74.30;102169.41;6123959;23;20229;-61
2021/10/18 04:38:07;;;;;;;18.40;14.00;;;;;;;13.51;73.59;102186.00;6123484;23;20153;-61
2021/10/18 04:40:32;;;;;;;22.03;15.23;;;;;;;13.52;73.88;102182.03;6123349;23;20243;-61
2021/10/18 04:42:58;;;;;;;21.70;16.87;;;;;;;13.54;73.42;102188.75;6122061;23;20168;-62
2021/10/18 04:45:24;;;;;;;24.87;16.93;;;;;;;13.54;73.68;102191.53;6122644;23;20205;-61
2021/10/18 04:47:51;;;;;;;28.10;20.80;;;;;;;13.60;73.91;102191.84;6123168;23;20182;-61
2021/10/18 04:50:18;;;;;;;23.33;16.40;;;;;;;13.60;74.21;102192.66;6122711;23;20619;-61
2021/10/18 04:52:43;;;;;;;22.03;16.53;;;;;;;13.61;74.26;102193.44;6119189;23;20632;-61
2021/10/18 04:55:09;;;;;;;35.13;23.37;;;;;;;13.63;74.27;102197.38;6118100;23;20178;-61
2021/10/18 04:57:47;;;;;;;36.87;25.97;;;;;;;13.45;73.66;102171.75;6113278;23;20240;-61
2021/10/18 05:00:13;;;;;;;22.93;16.40;;;;;;;13.36;73.38;102159.50;6115793;23;20178;-61
2021/10/18 05:02:38;;;;;;;25.63;16.50;;;;;;;13.58;72.75;102189.47;6121340;23;20150;-61
2021/10/18 05:05:04;;;;;;;25.30;14.60;;;;;;;13.73;73.22;102204.06;6120425;23;20653;-61
2021/10/18 05:07:30;;;;;;;20.40;13.60;;;;;;;13.64;73.28;102182.28;6115448;23;20225;-61
2021/10/18 05:09:55;;;;;;;20.70;14.17;;;;;;;13.64;73.46;102193.41;6122229;23;20161;-61
2021/10/18 05:12:20;;;;;;;19.30;13.97;;;;;;;13.76;73.51;102206.00;6121822;23;20153;-61
2021/10/18 05:14:46;;;;;;;18.00;14.40;;;;;;;13.78;73.28;102209.94;6122254;23;20177;-61
2021/10/18 05:17:11;;;;;;;18.63;14.53;;;;;;;13.64;72.99;102187.84;6121625;23;20555;-61
2021/10/18 05:19:37;;;;;;;20.57;14.63;;;;;;;13.84;73.32;102213.06;6121924;23;20236;-61
2021/10/18 05:22:02;;;;;;;23.90;15.47;;;;;;;13.86;73.13;102211.47;6121971;23;20151;-61
2021/10/18 05:24:28;;;;;;;25.23;15.90;;;;;;;13.68;72.87;102185.00;6121858;23;20668;-61
2021/10/18 05:26:53;;;;;;;24.40;15.27;;;;;;;13.84;72.76;102202.69;6121610;23;20162;-61
2021/10/18 05:29:19;;;;;;;25.27;15.27;;;;;;;13.94;72.96;102209.38;6114813;23;20640;-62
2021/10/18 05:31:44;;;;;;;26.67;15.17;;;;;;;13.72;72.49;102178.19;6114523;23;20210;-60
2021/10/18 05:34:10;;;;;;;19.90;15.47;;;;;;;14.01;72.76;102221.22;6116223;23;20190;-61
2021/10/18 05:36:35;;;;;;;20.70;16.43;;;;;;;14.07;72.36;102224.31;6117941;23;20478;-61
2021/10/18 05:39:01;;;;;;;22.97;17.93;;;;;;;13.92;72.68;102197.84;6119206;23;20168;-61
2021/10/18 05:41:26;;;;;;;26.20;17.57;;;;;;;14.06;72.58;102217.16;6118762;23;20208;-61
2021/10/18 05:43:52;;;;;;;24.17;17.20;;;;;;;14.16;72.26;102230.19;6119104;23;20177;-61
2021/10/18 05:46:17;;;;;;;26.17;17.73;;;;;;;14.05;72.70;102212.81;6115197;23;20166;-61
2021/10/18 05:48:43;;;;;;;23.80;17.03;;;;;;;14.07;72.52;102210.38;6119471;23;20153;-61
2021/10/18 05:51:08;;;;;;;31.63;18.97;;;;;;;14.24;72.79;102235.28;6120974;23;20152;-61
2021/10/18 05:53:34;;;;;;;30.30;20.57;;;;;;;14.30;72.52;102241.19;6116027;23;20224;-61
2021/10/18 05:56:00;;;;;;;31.57;23.33;;;;;;;14.19;72.67;102234.94;6112138;23;20151;-62
2021/10/18 05:58:25;;;;;;;30.90;21.63;;;;;;;14.34;72.65;102250.31;6116024;23;20594;-61
2021/10/18 06:00:51;;;;;;;21.87;16.73;;;;;;;14.35;72.31;102247.06;6120250;23;20162;-62
2021/10/18 06:03:16;;;;;;;22.00;15.90;;;;;;;14.48;71.93;102256.47;6119992;23;20562;-62
2021/10/18 06:05:46;;;;;;;17.87;14.53;;;;;;;14.53;71.72;102257.97;6118801;23;20154;-62
2021/10/18 06:08:14;;;;;;;19.43;14.37;;;;;;;14.62;71.32;102267.44;6117999;23;20185;-62
2021/10/18 06:10:41;;;;;;;16.37;13.67;;;;;;;14.52;71.32;102248.84;6120538;23;20597;-62
2021/10/18 06:13:07;;;;;;;16.10;13.17;;;;;;;14.73;71.24;102261.69;6118998;23;20162;-62
2021/10/18 06:15:33;;;;;;;14.80;13.00;;;;;;;14.71;70.93;102250.94;6119188;23;20229;-62
2021/10/18 06:18:12;;;;;;;13.97;12.13;;;;;;;14.86;70.88;102262.69;6120792;23;20166;-62
2021/10/18 06:20:47;;;;;;;13.67;11.70;;;;;;;14.94;70.23;102270.53;6121251;23;20158;-62
2021/10/18 06:23:14;;;;;;;17.40;12.03;;;;;;;14.96;70.22;102279.25;6121470;23;20611;-62
2021/10/18 06:25:41;;;;;;;15.43;12.70;;;;;;;15.04;70.12;102277.94;6113961;23;20155;-61
2021/10/18 06:28:08;;;;;;;18.87;12.53;;;;;;;14.92;70.55;102241.44;6118351;23;20223;-62
2021/10/18 06:30:34;;;;;;;14.47;11.37;;;;;;;15.05;69.56;102265.56;6115940;23;20633;-62
2021/10/18 06:32:59;;;;;;;14.03;12.03;;;;;;;15.22;69.60;102280.44;6117703;23;20138;-59
2021/10/18 06:35:25;;;;;;;14.90;12.40;;;;;;;15.17;69.57;102261.38;6114775;23;20183;-59
2021/10/18 06:37:51;;;;;;;14.57;12.30;;;;;;;15.12;69.05;102245.09;6114964;23;20166;-59
2021/10/18 06:40:17;;;;;;;16.87;13.13;;;;;;;15.43;68.49;102283.69;6117795;23;20160;-60
2021/10/18 06:42:43;;;;;;;14.30;12.50;;;;;;;15.55;67.95;102285.88;6117211;23;20551;-59
2021/10/18 06:45:09;;;;;;;15.33;13.60;;;;;;;15.59;67.20;102299.78;6115321;23;20226;-60
2021/10/18 06:47:35;;;;;;;16.47;13.73;;;;;;;15.59;67.14;102289.41;6117149;23;20186;-60
2021/10/18 06:50:01;;;;;;;15.40;12.40;;;;;;;15.68;67.62;102294.44;6117249;23;20216;-60
2021/10/18 06:52:32;;;;;;;16.47;12.77;;;;;;;15.80;67.42;102291.81;6117478;23;20162;-60
2021/10/18 06:54:58;;;;;;;15.17;12.57;;;;;;;15.59;67.50;102274.63;6120344;23;20594;-60
2021/10/18 06:57:24;;;;;;;16.03;13.03;;;;;;;15.71;66.45;102299.94;6119181;23;20167;-60
2021/10/18 06:59:50;;;;;;;20.10;14.17;;;;;;;15.44;67.24;102267.72;6119533;23;20154;-61
2021/10/18 07:02:15;;;;;;;24.23;15.30;;;;;;;15.71;67.82;102299.94;6120813;23;20154;-59
2021/10/18 07:04:41;;;;;;;18.43;14.23;;;;;;;15.77;67.59;102301.03;6119486;23;20161;-60
2021/10/18 07:07:10;;;;;;;20.97;14.43;;;;;;;15.87;66.80;102302.84;6118595;23;20291;-60
2021/10/18 07:09:36;;;;;;;18.77;14.83;;;;;;;15.81;65.85;102286.97;6118333;23;20237;-60
2021/10/18 07:12:02;;;;;;;22.63;15.83;;;;;;;15.96;65.81;102299.47;6117408;23;20190;-60
2021/10/18 07:14:27;;;;;;;16.47;14.73;;;;;;;15.85;63.95;102282.91;6118864;23;20182;-60
2021/10/18 07:16:53;;;;;;;21.63;15.73;;;;;;;15.97;65.13;102310.22;6119983;23;20159;-62
2021/10/18 07:19:18;;;;;;;21.17;17.07;;;;;;;16.09;65.26;102317.97;6117278;23;20173;-62
2021/10/18 07:21:46;;;;;;;18.20;14.90;;;;;;;16.16;63.33;102314.25;6119507;23;20157;-62
2021/10/18 07:24:12;;;;;;;21.00;16.37;;;;;;;15.70;64.53;102312.34;6113657;23;20262;-60
2021/10/18 07:26:37;;;;;;;19.37;15.13;;;;;;;15.81;64.03;102315.75;6112099;23;20163;-60
2021/10/18 07:29:03;;;;;;;18.07;15.03;;;;;;;15.96;63.40;102311.47;6117920;23;20164;-60
2021/10/18 07:31:28;;;;;;;18.23;14.37;;;;;;;16.18;62.31;102314.63;6119141;23;20230;-60
2021/10/18 07:34:01;;;;;;;18.87;14.77;;;;;;;16.03;61.50;102297.31;6119297;23;20194;-60
2021/10/18 07:36:27;;;;;;;18.87;14.70;;;;;;;16.07;60.97;102305.63;6112239;23;20163;-62
2021/10/18 07:38:55;;;;;;;23.87;16.47;;;;;;;15.98;62.11;102316.63;6118793;23;20663;-62
2021/10/18 07:41:21;;;;;;;17.37;14.20;;;;;;;15.98;60.87;102322.22;6118945;23;20188;-62
2021/10/18 07:43:47;;;;;;;19.93;14.67;;;;;;;15.88;60.79;102287.63;6118961;23;20147;-62
2021/10/18 07:46:13;;;;;;;18.97;15.27;;;;;;;15.77;60.87;102297.47;6119036;23;20159;-63
2021/10/18 07:48:38;;;;;;;18.13;15.37;;;;;;;15.84;61.87;102317.66;6116451;23;20621;-63
2021/10/18 07:51:04;;;;;;;19.07;15.23;;;;;;;15.91;61.57;102317.53;6116490;23;20494;-63
2021/10/18 07:53:29;;;;;;;21.77;16.30;;;;;;;15.69;61.63;102296.00;6120098;23;20185;-63
2021/10/18 07:55:55;;;;;;;20.80;16.23;;;;;;;15.86;61.45;102317.25;6110192;23;20213;-62
2021/10/18 07:58:21;;;;;;;18.80;16.10;;;;;;;15.87;61.61;102318.81;6109465;23;20162;-60
2021/10/18 08:00:47;;;;;;;17.90;15.70;;;;;;;15.85;61.44;102304.47;6116318;23;20231;-63
2021/10/18 08:03:12;;;;;;;21.50;15.57;;;;;;;16.13;61.20;102320.72;6113461;23;20190;-63
2021/10/18 08:05:38;;;;;;;18.33;15.77;;;;;;;16.26;59.08;102313.25;6117524;23;20167;-60
2021/10/18 08:08:05;;;;;;;18.60;16.17;;;;;;;15.97;59.89;102301.03;6112395;23;20159;-60
2021/10/18 08:10:30;;;;;;;19.17;15.87;;;;;;;16.10;60.23;102304.78;6118453;23;20159;-60
2021/10/18 08:12:58;;;;;;;17.97;11.57;;;;;;;16.42;60.79;102316.94;6120486;23;20226;-60
2021/10/18 08:15:25;;;;;;;18.47;15.70;;;;;;;16.41;58.55;102314.56;6094156;23;20163;-60
2021/10/18 08:17:51;;;;;;;19.77;14.73;;;;;;;16.47;59.28;102320.47;6116673;23;20164;-60
2021/10/18 08:20:17;;;;;;;19.30;14.47;;;;;;;16.55;57.82;102315.03;6115700;23;20324;-60
2021/10/18 08:22:43;;;;;;;17.40;14.97;;;;;;;16.76;58.06;102319.41;6113156;23;20169;-60
2021/10/18 08:25:09;;;;;;;18.70;15.93;;;;;;;16.78;57.75;102292.53;6117116;23;20546;-60
2021/10/18 08:27:35;;;;;;;27.27;15.53;;;;;;;16.92;57.19;102288.63;6114185;23;20158;-60
2021/10/18 08:30:01;;;;;;;20.70;15.10;;;;;;;17.14;55.44;102317.69;6119364;23;20233;-61
2021/10/18 08:32:26;;;;;;;18.60;15.23;;;;;;;16.91;57.49;102323.47;6117957;23;20262;-60
2021/10/18 08:34:52;;;;;;;17.67;14.33;;;;;;;16.95;56.53;102324.94;6117905;23;20739;-60
2021/10/18 08:37:18;;;;;;;17.37;15.33;;;;;;;16.98;56.20;102307.28;6119352;23;20244;-63
2021/10/18 08:42:28;;;;;;;18.53;15.00;;;;;;;16.80;55.96;102286.50;6120577;23;20924;-63
2021/10/18 08:44:54;;;;;;;19.90;15.13;;;;;;;16.93;56.94;102307.00;6120218;23;20531;-64
2021/10/18 08:47:25;;;;;;;19.47;15.43;;;;;;;16.88;56.63;102315.91;6118009;23;20268;-64
2021/10/18 08:49:52;;;;;;;19.30;17.00;;;;;;;16.98;57.50;102314.88;6114061;23;20161;-64
2021/10/18 08:52:21;;;;;;;18.80;16.80;;;;;;;16.93;56.75;102316.19;6114986;23;20179;-63
2021/10/18 08:54:47;;;;;;;24.17;17.90;;;;;;;16.77;57.61;102290.16;6115698;23;20544;-64
2021/10/18 08:57:12;;;;;;;19.27;17.20;;;;;;;16.93;57.82;102296.59;6117488;23;20236;-63
2021/10/18 08:59:38;;;;;;;18.37;16.13;;;;;;;17.02;57.86;102310.00;6114433;23;20163;-63
2021/10/18 09:02:04;;;;;;;18.77;15.57;;;;;;;17.02;56.60;102316.41;6106886;23;20164;-63
2021/10/18 09:04:36;;;;;;;18.60;15.73;;;;;;;16.99;56.94;102320.06;6116510;23;20150;-63
2021/10/18 09:07:12;;;;;;;19.87;15.63;;;;;;;17.10;57.98;102314.19;6119045;23;20142;-64
2021/10/18 09:09:50;;;;;;;18.83;14.90;;;;;;;17.24;56.44;102311.84;6110270;23;20172;-64
2021/10/18 09:12:42;;;;;;;20.23;15.47;;;;;;;17.29;57.20;102304.91;6112625;23;20231;-64
2021/10/18 09:15:16;;;;;;;16.83;14.60;;;;;;;17.41;56.05;102304.25;6110717;23;20582;-64
2021/10/18 09:17:41;;;;;;;16.53;14.57;;;;;;;17.27;55.87;102277.31;6119019;23;20157;-64
2021/10/18 09:20:32;;;;;;;18.77;14.10;;;;;;;17.56;55.49;102305.44;6117435;23;20154;-64
2021/10/18 09:23:28;;;;;;;20.23;14.40;;;;;;;17.61;55.01;102304.13;6114577;23;20159;-64
2021/10/18 09:26:06;;;;;;;17.33;14.10;;;;;;;17.51;55.52;102299.59;6119067;23;20142;-64
2021/10/18 09:28:32;;;;;;;17.73;14.27;;;;;;;17.55;55.75;102301.06;6118852;23;20146;-64
2021/10/18 09:30:58;;;;;;;16.67;14.87;;;;;;;17.10;56.33;102242.16;6117347;23;20603;-64
2021/10/18 09:33:35;;;;;;;17.47;14.90;;;;;;;17.63;56.57;102294.06;6119817;23;20182;-64
2021/10/18 09:36:03;;;;;;;16.87;14.47;;;;;;;17.54;56.58;102263.06;6117400;23;20647;-64
2021/10/18 09:38:29;;;;;;;16.50;14.53;;;;;;;17.45;56.63;102267.72;6119304;23;20150;-64
2021/10/18 09:41:00;;;;;;;16.03;14.43;;;;;;;17.52;55.22;102298.38;6117839;23;20161;-64
2021/10/18 10:51:19;;;;;;;14.13;12.03;;;;;;;19.31;51.90;102226.38;6117125;23;20208;-70
2021/10/18 10:53:48;;;;;;;13.23;11.33;;;;;;;19.17;52.03;102224.00;6119720;23;20157;-69
2021/10/18 10:56:26;;;;;;;15.60;12.30;;;;;;;19.31;52.10;102220.75;6120571;23;20507;-69
2021/10/18 10:59:30;;;;;;;14.03;12.63;;;;;;;19.16;51.99;102157.81;6119356;23;20617;-70
2021/10/18 11:02:02;;;;;;;13.57;12.00;;;;;;;19.23;51.21;102144.31;6117766;23;20161;-69
2021/10/18 11:04:30;;;;;;;13.10;11.07;;;;;;;19.83;51.22;102209.63;6119430;23;20178;-70
2021/10/18 11:07:02;;;;;;;14.80;11.43;;;;;;;19.96;50.41;102211.13;6120793;23;20151;-69
2021/10/18 11:09:44;;;;;;;13.00;11.70;;;;;;;20.16;51.45;102205.19;6119186;23;20159;-69
2021/10/18 11:12:32;;;;;;;15.40;11.87;;;;;;;20.34;50.30;102203.25;6118864;23;20153;-69
2021/10/18 11:15:03;;;;;;;13.97;11.57;;;;;;;20.01;48.85;102202.09;6120701;23;20155;-70
2021/10/18 11:18:00;;;;;;;14.67;11.97;;;;;;;19.78;49.15;102198.97;6120647;23;20162;-70
2021/10/18 11:20:27;;;;;;;12.80;10.93;;;;;;;20.00;49.46;102189.25;6114483;23;20162;-69
2021/10/18 11:22:59;;;;;;;12.03;10.83;;;;;;;20.02;49.84;102186.00;6120685;23;20640;-69
2021/10/18 11:25:31;;;;;;;13.27;11.77;;;;;;;19.87;49.74;102184.97;6118090;23;20197;-70
2021/10/18 11:28:02;;;;;;;12.17;10.97;;;;;;;19.58;48.74;102105.69;6120619;23;20143;-69
2021/10/18 11:30:30;;;;;;;13.63;10.70;;;;;;;20.02;49.82;102171.94;6116710;23;20201;-69
2021/10/18 11:32:57;;;;;;;12.37;11.03;;;;;;;20.20;49.43;102174.84;6121223;23;20146;-68
2021/10/18 11:35:24;;;;;;;11.83;10.63;;;;;;;20.39;48.40;102177.31;6119280;23;20544;-67
2021/10/18 11:37:54;;;;;;;11.70;8.87;;;;;;;20.26;46.39;102173.81;6120145;23;20158;-69
2021/10/18 11:40:38;;;;;;;11.43;9.43;;;;;;;20.16;47.40;102117.94;6114685;23;20170;-68
2021/10/18 11:43:07;;;;;;;11.70;10.43;;;;;;;20.20;47.79;102167.19;6119899;23;20142;-69
2021/10/18 11:45:38;;;;;;;12.73;10.80;;;;;;;19.59;47.34;102087.59;6119193;23;20167;-66
2021/10/18 11:48:25;;;;;;;12.80;9.57;;;;;;;20.26;48.35;102159.72;6118924;23;20150;-66
2021/10/18 11:50:53;;;;;;;10.83;9.73;;;;;;;20.58;46.79;102164.84;6114334;23;20155;-66
2021/10/18 11:53:20;;;;;;;10.53;9.23;;;;;;;20.38;45.82;102141.97;6117319;23;20177;-67
2021/10/18 11:56:00;;;;;;;11.20;10.00;;;;;;;20.73;46.23;102154.56;6120306;23;20154;-66
2021/10/18 11:58:34;;;;;;;11.93;10.33;;;;;;;20.76;45.99;102155.66;6119772;23;20556;-66
2021/10/18 12:01:05;;;;;;;12.37;9.77;;;;;;;21.00;46.39;102154.66;6117276;23;20601;-67
2021/10/18 12:03:34;;;;;;;7.60;6.37;;;;;;;21.30;45.62;102150.94;6118542;23;20525;-66
2021/10/18 12:06:03;;;;;;;10.53;9.43;;;;;;;21.52;44.51;102142.28;6119654;23;20177;-66
2021/10/18 12:08:30;;;;;;;11.47;9.17;;;;;;;21.28;44.51;102099.09;6118217;23;20158;-66
2021/10/18 12:10:57;;;;;;;10.40;8.07;;;;;;;21.90;44.31;102145.41;6116999;23;20174;-66
2021/10/18 12:13:27;;;;;;;12.37;8.53;;;;;;;22.12;43.34;102137.50;6115982;23;20189;-66
2021/10/18 12:15:56;;;;;;;10.60;8.30;;;;;;;22.04;43.05;102142.69;6118783;23;20586;-66
2021/10/18 12:18:24;;;;;;;9.10;8.10;;;;;;;21.62;42.57;102065.66;6117023;23;20498;-66
2021/10/18 12:20:55;;;;;;;9.43;7.97;;;;;;;22.47;42.66;102130.91;6109629;23;20161;-66
2021/10/18 12:23:29;;;;;;;9.67;8.17;;;;;;;22.70;42.27;102121.69;6118500;23;20213;-66